createdAt,value
2023-01-08T00:02:15.583Z,11.40
2023-01-08T00:04:45.997Z,11.30
2023-01-08T00:07:16.320Z,11.30
2023-01-08T00:09:48.110Z,11.40
2023-01-08T00:12:21.040Z,11.40
2023-01-08T00:14:51.359Z,11.40
2023-01-08T00:17:21.928Z,11.40
2023-01-08T00:19:53.956Z,11.40
2023-01-08T00:22:24.359Z,11.40
2023-01-08T00:24:54.761Z,11.40
2023-01-08T00:27:27.672Z,11.40
2023-01-08T00:30:01.048Z,11.40
2023-01-08T00:32:34.442Z,11.40
2023-01-08T00:35:07.873Z,11.40
2023-01-08T00:37:38.210Z,11.40
2023-01-08T00:40:10.512Z,11.50
2023-01-08T00:42:43.459Z,11.40
2023-01-08T00:45:16.733Z,11.40
2023-01-08T00:47:47.039Z,11.50
2023-01-08T00:50:17.558Z,11.40
2023-01-08T00:52:47.954Z,11.40
2023-01-08T00:55:19.048Z,11.30
2023-01-08T00:57:51.984Z,11.20
2023-01-08T01:00:22.446Z,11.20
2023-01-08T01:02:53.015Z,11.10
2023-01-08T01:05:24.028Z,11.10
2023-01-08T01:07:54.760Z,11.10
2023-01-08T01:10:27.820Z,11.10
2023-01-08T01:13:02.090Z,11.00
2023-01-08T01:15:32.470Z,11.00
2023-01-08T01:18:02.811Z,11.00
2023-01-08T01:20:33.202Z,10.90
2023-01-08T01:23:07.581Z,10.70
2023-01-08T01:25:45.716Z,10.70
2023-01-08T01:28:21.459Z,10.60
2023-01-08T01:30:57.509Z,10.60
2023-01-08T01:33:28.751Z,10.60
2023-01-08T01:36:05.942Z,10.50
2023-01-08T01:38:36.603Z,10.60
2023-01-08T01:41:07.495Z,10.60
2023-01-08T01:43:43.555Z,10.60
2023-01-08T01:46:23.253Z,10.50
2023-01-08T01:49:01.106Z,10.50
2023-01-08T01:51:35.552Z,10.50
2023-01-08T01:54:08.112Z,10.50
2023-01-08T01:56:38.471Z,10.50
2023-01-08T01:59:11.533Z,10.30
2023-01-08T02:01:44.688Z,10.40
2023-01-08T02:04:16.256Z,10.40
2023-01-08T02:06:54.973Z,10.40
2023-01-08T02:09:33.022Z,10.40
2023-01-08T02:12:20.572Z,10.40
2023-01-08T02:15:11.593Z,10.40
2023-01-08T02:17:51.409Z,10.40
2023-01-08T02:20:27.765Z,10.40
2023-01-08T02:23:14.814Z,10.40
2023-01-08T02:26:25.374Z,10.40
2023-01-08T02:29:01.425Z,10.50
2023-01-08T02:31:36.611Z,10.50
2023-01-08T02:34:09.591Z,10.40
2023-01-08T02:36:45.459Z,10.50
2023-01-08T02:39:30.894Z,10.50
2023-01-08T02:42:12.139Z,10.50
2023-01-08T02:44:57.089Z,10.50
2023-01-08T02:47:35.159Z,10.50
2023-01-08T02:50:13.932Z,10.50
2023-01-08T02:52:51.925Z,10.50
2023-01-08T02:55:27.017Z,10.50
2023-01-08T02:58:03.600Z,10.50
2023-01-08T03:00:35.836Z,10.60
2023-01-08T03:03:12.108Z,10.60
2023-01-08T03:05:44.848Z,10.60
2023-01-08T03:08:15.929Z,10.50
2023-01-08T03:10:50.678Z,10.60
2023-01-08T03:13:32.235Z,10.60
2023-01-08T03:16:11.952Z,10.40
2023-01-08T03:18:52.818Z,10.40
2023-01-08T03:21:25.124Z,10.40
2023-01-08T03:23:55.833Z,10.40
2023-01-08T03:26:29.596Z,10.40
2023-01-08T03:29:04.286Z,10.40
2023-01-08T03:31:36.903Z,10.40
2023-01-08T03:34:07.877Z,10.40
2023-01-08T03:36:44.668Z,10.40
2023-01-08T03:39:19.778Z,10.40
2023-01-08T03:41:52.504Z,10.30
2023-01-08T03:44:25.449Z,10.30
2023-01-08T03:46:58.665Z,10.40
2023-01-08T03:49:33.080Z,10.30
2023-01-08T03:52:03.393Z,10.30
2023-01-08T03:54:36.275Z,10.30
2023-01-08T03:57:09.520Z,10.30
2023-01-08T03:59:42.396Z,10.20
2023-01-08T04:02:19.083Z,10.30
2023-01-08T04:04:50.269Z,10.20
2023-01-08T04:07:20.613Z,10.20
2023-01-08T04:09:50.953Z,10.20
2023-01-08T04:12:21.313Z,10.20
2023-01-08T04:14:54.197Z,10.10
2023-01-08T04:17:24.567Z,10.20
2023-01-08T04:19:55.419Z,10.10
2023-01-08T04:22:26.515Z,10.10
2023-01-08T04:24:56.821Z,10.10
2023-01-08T04:27:27.235Z,10.10
2023-01-08T04:30:00.152Z,10.10
2023-01-08T04:32:34.564Z,10.00
2023-01-08T04:35:04.911Z,10.00
2023-01-08T04:37:35.241Z,10.10
2023-01-08T04:40:08.316Z,10.10
2023-01-08T04:42:38.673Z,10.10
2023-01-08T04:45:12.928Z,10.10
2023-01-08T04:47:43.291Z,10.10
2023-01-08T04:50:13.917Z,10.00
2023-01-08T04:52:44.253Z,10.00
2023-01-08T04:55:14.564Z,10.00
2023-01-08T04:57:45.034Z,10.00
2023-01-08T05:00:19.341Z,10.00
2023-01-08T05:02:51.597Z,9.90
2023-01-08T05:05:21.981Z,9.90
2023-01-08T05:07:52.328Z,9.90
2023-01-08T05:10:22.758Z,9.90
2023-01-08T05:12:53.123Z,9.80
2023-01-08T05:15:27.303Z,9.80
2023-01-08T05:18:02.474Z,9.80
2023-01-08T05:20:35.809Z,9.80
2023-01-08T05:23:06.199Z,9.80
2023-01-08T05:25:37.420Z,9.80
2023-01-08T05:28:08.355Z,9.70
2023-01-08T05:30:42.413Z,9.70
2023-01-08T05:33:12.838Z,9.70
2023-01-08T05:35:43.227Z,9.70
2023-01-08T05:38:14.082Z,9.70
2023-01-08T05:40:44.516Z,9.60
2023-01-08T05:43:14.921Z,9.60
2023-01-08T05:45:47.832Z,9.60
2023-01-08T05:48:18.132Z,9.60
2023-01-08T05:50:51.339Z,9.50
2023-01-08T05:53:21.770Z,9.60
2023-01-08T05:55:52.117Z,9.50
2023-01-08T05:58:23.557Z,9.50
2023-01-08T06:00:56.574Z,9.50
2023-01-08T06:03:26.863Z,9.40
2023-01-08T06:06:00.623Z,9.40
2023-01-08T06:08:35.562Z,9.40
2023-01-08T06:11:08.629Z,9.40
2023-01-08T06:13:39.710Z,9.40
2023-01-08T06:16:13.190Z,9.40
2023-01-08T06:18:46.639Z,9.40
2023-01-08T06:21:17.916Z,9.40
2023-01-08T06:23:51.048Z,9.40
2023-01-08T06:26:23.615Z,9.40
2023-01-08T06:28:54.015Z,9.30
2023-01-08T06:31:28.959Z,9.30
2023-01-08T06:33:59.304Z,9.30
2023-01-08T06:36:29.738Z,9.30
2023-01-08T06:39:00.103Z,9.30
2023-01-08T06:41:31.426Z,9.30
2023-01-08T06:44:04.411Z,9.30
2023-01-08T06:46:40.487Z,9.30
2023-01-08T06:49:11.319Z,9.30
2023-01-08T06:51:41.636Z,9.20
2023-01-08T06:54:13.583Z,9.30
2023-01-08T06:56:53.323Z,9.20
2023-01-08T06:59:26.848Z,9.30
2023-01-08T07:01:59.959Z,9.20
2023-01-08T07:04:30.397Z,9.20
2023-01-08T07:07:00.739Z,9.20
2023-01-08T07:09:31.010Z,9.20
2023-01-08T07:12:01.373Z,9.20
2023-01-08T07:14:31.686Z,9.20
2023-01-08T07:17:04.641Z,9.20
2023-01-08T07:19:34.964Z,9.10
2023-01-08T07:22:05.397Z,9.20
2023-01-08T07:24:37.255Z,9.20
2023-01-08T07:27:07.576Z,9.20
2023-01-08T07:29:38.139Z,9.20
2023-01-08T07:32:11.342Z,9.20
2023-01-08T07:34:41.608Z,9.20
2023-01-08T07:37:12.005Z,9.20
2023-01-08T07:39:43.623Z,9.20
2023-01-08T07:42:18.128Z,9.20
2023-01-08T07:44:48.578Z,9.20
2023-01-08T07:47:21.579Z,9.20
2023-01-08T07:49:51.911Z,9.20
2023-01-08T07:52:23.223Z,9.20
2023-01-08T07:54:56.043Z,9.20
2023-01-08T07:57:28.265Z,9.20
2023-01-08T07:59:58.807Z,9.20
2023-01-08T08:02:32.039Z,9.20
2023-01-08T08:05:02.529Z,9.20
2023-01-08T08:07:34.750Z,9.20
2023-01-08T08:10:05.688Z,9.20
2023-01-08T08:12:36.066Z,9.20
2023-01-08T08:15:09.880Z,9.20
2023-01-08T08:17:42.813Z,9.20
2023-01-08T08:20:15.069Z,9.20
2023-01-08T08:22:48.145Z,9.20
2023-01-08T08:25:18.702Z,9.20
2023-01-08T08:27:49.230Z,9.20
2023-01-08T08:30:19.668Z,9.20
2023-01-08T08:32:52.588Z,9.20
2023-01-08T08:35:22.956Z,9.30
2023-01-08T08:37:53.299Z,9.30
2023-01-08T08:40:24.153Z,9.30
2023-01-08T08:42:59.498Z,9.30
2023-01-08T08:45:30.495Z,9.30
2023-01-08T08:48:04.848Z,9.40
2023-01-08T08:50:35.391Z,9.30
2023-01-08T08:53:09.307Z,9.30
2023-01-08T08:55:39.670Z,9.30
2023-01-08T08:58:14.343Z,9.40
2023-01-08T09:00:46.529Z,9.40
2023-01-08T09:03:19.935Z,9.40
2023-01-08T09:05:50.358Z,9.40
2023-01-08T09:08:20.757Z,9.40
2023-01-08T09:10:51.356Z,9.40
2023-01-08T09:13:21.782Z,9.40
2023-01-08T09:15:52.157Z,9.40
2023-01-08T09:18:25.067Z,9.40
2023-01-08T09:20:55.441Z,9.40
2023-01-08T09:23:25.769Z,9.40
2023-01-08T09:26:03.012Z,9.30
2023-01-08T09:28:33.439Z,9.40
2023-01-08T09:31:05.677Z,9.40
2023-01-08T09:33:38.775Z,9.40
2023-01-08T09:36:14.157Z,9.40
2023-01-08T09:38:45.234Z,9.40
2023-01-08T09:41:22.317Z,9.40
2023-01-08T09:43:55.775Z,9.40
2023-01-08T09:46:29.678Z,9.40
2023-01-08T09:49:04.899Z,9.40
2023-01-08T09:51:38.801Z,9.40
2023-01-08T09:54:10.044Z,9.40
2023-01-08T09:56:41.217Z,9.40
2023-01-08T09:59:16.166Z,9.40
2023-01-08T10:01:47.722Z,9.40
2023-01-08T10:04:23.291Z,9.40
2023-01-08T10:06:58.798Z,9.50
2023-01-08T10:09:31.461Z,9.50
2023-01-08T10:12:07.520Z,9.50
2023-01-08T10:14:40.511Z,9.50
2023-01-08T10:17:19.025Z,9.50
2023-01-08T10:19:51.783Z,9.50
2023-01-08T10:22:25.151Z,9.60
2023-01-08T10:24:55.511Z,9.60
2023-01-08T10:27:26.992Z,9.60
2023-01-08T10:30:08.738Z,9.60
2023-01-08T10:32:40.581Z,9.60
2023-01-08T10:35:21.959Z,9.60
2023-01-08T10:37:53.316Z,9.60
2023-01-08T10:40:32.370Z,9.60
2023-01-08T10:43:16.392Z,9.70
2023-01-08T10:45:56.663Z,9.70
2023-01-08T10:48:32.486Z,9.70
2023-01-08T10:51:18.620Z,9.70
2023-01-08T10:53:49.008Z,9.80
2023-01-08T10:56:25.003Z,9.80
2023-01-08T10:59:01.399Z,9.80
2023-01-08T11:01:34.452Z,9.80
2023-01-08T11:04:07.208Z,9.80
2023-01-08T11:06:46.482Z,9.80
2023-01-08T11:09:25.649Z,9.90
2023-01-08T11:11:56.005Z,10.00
2023-01-08T11:14:29.098Z,10.00
2023-01-08T11:17:02.859Z,10.00
2023-01-08T11:19:35.180Z,10.00
2023-01-08T11:22:20.303Z,10.00
2023-01-08T11:24:52.540Z,10.00
2023-01-08T11:27:30.116Z,10.10
2023-01-08T11:30:05.704Z,10.00
2023-01-08T11:32:46.372Z,10.10
2023-01-08T11:35:22.886Z,10.10
2023-01-08T11:37:59.611Z,10.10
2023-01-08T11:40:40.140Z,10.10
2023-01-08T11:43:27.660Z,10.20
2023-01-08T11:46:23.995Z,10.10
2023-01-08T11:49:16.011Z,10.10
2023-01-08T11:52:07.570Z,10.10
2023-01-08T11:54:58.496Z,10.20
2023-01-08T11:57:39.697Z,10.30
2023-01-08T12:00:33.691Z,10.20
2023-01-08T12:03:06.537Z,10.20
2023-01-08T12:05:41.860Z,10.20
2023-01-08T12:08:21.925Z,10.30
2023-01-08T12:11:06.706Z,10.40
2023-01-08T12:13:58.455Z,10.40
2023-01-08T12:16:45.189Z,10.40
2023-01-08T12:19:30.446Z,10.30
2023-01-08T12:22:17.590Z,10.40
2023-01-08T12:25:06.379Z,10.40
2023-01-08T12:27:56.891Z,10.40
2023-01-08T12:30:37.700Z,10.40
2023-01-08T12:33:15.116Z,10.30
2023-01-08T12:35:50.658Z,10.40
2023-01-08T12:38:31.550Z,10.40
2023-01-08T12:41:04.647Z,10.40
2023-01-08T12:43:48.176Z,10.40
2023-01-08T12:46:19.781Z,10.40
2023-01-08T12:48:52.263Z,10.40
2023-01-08T12:51:30.149Z,10.50
2023-01-08T12:54:10.390Z,10.50
2023-01-08T12:56:49.729Z,10.60
2023-01-08T12:59:34.779Z,10.50
2023-01-08T13:02:13.859Z,10.50
2023-01-08T13:04:45.527Z,10.50
2023-01-08T13:07:21.692Z,10.50
2023-01-08T13:09:58.648Z,10.60
2023-01-08T13:12:37.264Z,10.60
2023-01-08T13:15:12.576Z,10.50
2023-01-08T13:17:43.536Z,10.50
2023-01-08T13:20:28.254Z,10.50
2023-01-08T13:23:05.024Z,10.60
2023-01-08T13:25:38.214Z,10.70
2023-01-08T13:28:29.440Z,10.70
2023-01-08T13:31:12.219Z,10.80
2023-01-08T13:33:44.344Z,10.90
2023-01-08T13:36:32.647Z,10.90
2023-01-08T13:39:09.708Z,10.90
2023-01-08T13:41:44.272Z,10.80
2023-01-08T13:44:26.455Z,10.80
2023-01-08T13:47:01.567Z,10.80
2023-01-08T13:49:38.183Z,10.70
2023-01-08T13:52:08.854Z,10.70
2023-01-08T13:54:42.481Z,10.80
2023-01-08T13:57:18.168Z,10.80
2023-01-08T13:59:52.946Z,10.80
2023-01-08T14:02:32.607Z,10.90
2023-01-08T14:05:04.971Z,10.90
2023-01-08T14:07:35.686Z,10.70
2023-01-08T14:10:12.559Z,10.90
2023-01-08T14:12:43.287Z,10.90
2023-01-08T14:15:26.264Z,10.80
2023-01-08T14:18:00.596Z,10.80
2023-01-08T14:20:36.197Z,10.70
2023-01-08T14:23:13.966Z,10.60
2023-01-08T14:25:45.048Z,10.70
2023-01-08T14:28:20.816Z,10.60
2023-01-08T14:30:52.246Z,10.60
2023-01-08T14:33:28.667Z,10.70
2023-01-08T14:36:00.209Z,10.70
2023-01-08T14:38:31.241Z,10.80
2023-01-08T14:41:06.997Z,10.60
2023-01-08T14:43:43.623Z,10.70
2023-01-08T14:46:23.084Z,10.80
2023-01-08T14:48:57.359Z,10.70
2023-01-08T14:51:36.608Z,10.70
2023-01-08T14:54:10.508Z,10.70
2023-01-08T14:56:41.082Z,10.60
2023-01-08T14:59:13.556Z,10.60
2023-01-08T15:01:44.394Z,10.60
2023-01-08T15:04:22.509Z,10.60
2023-01-08T15:06:54.763Z,10.50
2023-01-08T15:09:27.180Z,10.50
2023-01-08T15:11:59.185Z,10.50
2023-01-08T15:14:31.867Z,10.50
2023-01-08T15:17:11.065Z,10.50
2023-01-08T15:19:50.343Z,10.40
2023-01-08T15:22:23.947Z,10.40
2023-01-08T15:25:00.496Z,10.40
2023-01-08T15:27:31.577Z,10.50
2023-01-08T15:30:04.136Z,10.50
2023-01-08T15:32:37.452Z,10.50
2023-01-08T15:35:17.180Z,10.50
2023-01-08T15:37:47.706Z,10.50
2023-01-08T15:40:18.258Z,10.40
2023-01-08T15:43:01.070Z,10.40
2023-01-08T15:45:33.562Z,10.50
2023-01-08T15:48:09.123Z,10.50
2023-01-08T15:50:43.899Z,10.50
2023-01-08T15:53:22.536Z,10.40
2023-01-08T15:55:53.924Z,10.50
2023-01-08T15:58:24.585Z,10.50
2023-01-08T16:00:55.006Z,10.50
2023-01-08T16:03:26.058Z,10.40
2023-01-08T16:05:59.940Z,10.40
2023-01-08T16:08:30.537Z,10.40
2023-01-08T16:11:00.884Z,10.40
2023-01-08T16:13:31.402Z,10.40
2023-01-08T16:16:02.177Z,10.40
2023-01-08T16:18:32.551Z,10.40
2023-01-08T16:21:05.955Z,10.40
2023-01-08T16:23:37.413Z,10.40
2023-01-08T16:26:12.594Z,10.40
2023-01-08T16:28:43.768Z,10.40
2023-01-08T16:31:14.341Z,10.30
2023-01-08T16:33:44.748Z,10.30
2023-01-08T16:36:17.664Z,10.30
2023-01-08T16:38:51.339Z,10.30
2023-01-08T16:41:21.751Z,10.30
2023-01-08T16:43:52.379Z,10.20
2023-01-08T16:46:22.750Z,10.30
2023-01-08T16:48:53.866Z,10.20
2023-01-08T16:51:28.338Z,10.20
2023-01-08T16:53:58.922Z,10.30
2023-01-08T16:56:30.423Z,10.20
2023-01-08T16:59:01.986Z,10.20
2023-01-08T17:01:32.526Z,10.20
2023-01-08T17:04:03.082Z,10.20
2023-01-08T17:06:39.397Z,10.20
2023-01-08T17:09:11.637Z,10.20
2023-01-08T17:11:42.361Z,10.20
2023-01-08T17:14:13.287Z,10.20
2023-01-08T17:16:45.470Z,10.20
2023-01-08T17:19:16.717Z,10.20
2023-01-08T17:21:50.530Z,10.20
2023-01-08T17:24:21.036Z,10.10
2023-01-08T17:26:51.533Z,10.10
2023-01-08T17:29:22.430Z,10.20
2023-01-08T17:31:53.547Z,10.20
2023-01-08T17:34:24.102Z,10.20
2023-01-08T17:36:57.172Z,10.20
2023-01-08T17:39:30.899Z,10.20
2023-01-08T17:42:15.972Z,10.20
2023-01-08T17:44:46.626Z,10.20
2023-01-08T17:47:17.283Z,10.20
2023-01-08T17:49:47.646Z,10.20
2023-01-08T17:52:20.936Z,10.20
2023-01-08T17:54:51.919Z,10.20
2023-01-08T17:57:23.658Z,10.20
2023-01-08T17:59:54.201Z,10.20
2023-01-08T18:02:25.278Z,10.20
2023-01-08T18:04:55.967Z,10.20
2023-01-08T18:07:29.084Z,10.20
2023-01-08T18:09:59.512Z,10.20
2023-01-08T18:12:29.958Z,10.20
2023-01-08T18:15:00.363Z,10.20
2023-01-08T18:17:33.917Z,10.20
2023-01-08T18:20:04.259Z,10.20
2023-01-08T18:22:37.301Z,10.20
2023-01-08T18:25:08.135Z,10.20
2023-01-08T18:27:38.591Z,10.10
2023-01-08T18:30:11.576Z,10.10
2023-01-08T18:32:42.324Z,10.20
2023-01-08T18:35:13.275Z,10.20
2023-01-08T18:37:46.802Z,10.10
2023-01-08T18:40:17.759Z,10.20
2023-01-08T18:42:50.475Z,10.20
2023-01-08T18:45:21.023Z,10.20
2023-01-08T18:47:51.684Z,10.20
2023-01-08T18:50:22.239Z,10.20
2023-01-08T18:52:55.591Z,10.20
2023-01-08T18:55:26.371Z,10.20
2023-01-08T18:57:56.828Z,10.20
2023-01-08T19:00:27.435Z,10.20
2023-01-08T19:02:57.964Z,10.10
2023-01-08T19:05:28.434Z,10.20
2023-01-08T19:08:01.652Z,10.10
2023-01-08T19:10:32.233Z,10.20
2023-01-08T19:13:02.630Z,10.10
2023-01-08T19:15:33.011Z,10.10
2023-01-08T19:18:03.425Z,10.20
2023-01-08T19:20:33.865Z,10.10
2023-01-08T19:23:07.179Z,10.10
2023-01-08T19:25:39.176Z,10.10
2023-01-08T19:28:09.730Z,10.10
2023-01-08T19:30:40.574Z,10.20
2023-01-08T19:33:10.985Z,10.10
2023-01-08T19:35:42.206Z,10.10
2023-01-08T19:38:15.259Z,10.10
2023-01-08T19:40:45.798Z,10.20
2023-01-08T19:43:29.169Z,10.20
2023-01-08T19:45:59.692Z,10.20
2023-01-08T19:48:30.165Z,10.20
2023-01-08T19:51:00.538Z,10.20
2023-01-08T19:53:34.255Z,10.20
2023-01-08T19:56:08.442Z,10.20
2023-01-08T19:58:39.552Z,10.20
2023-01-08T20:01:14.128Z,10.20
2023-01-08T20:03:45.932Z,10.10
2023-01-08T20:06:19.932Z,10.10
2023-01-08T20:08:54.430Z,10.10
2023-01-08T20:11:25.887Z,10.10
2023-01-08T20:13:56.476Z,10.20
2023-01-08T20:16:27.920Z,10.20
2023-01-08T20:19:02.097Z,10.20
2023-01-08T20:21:32.992Z,10.20
2023-01-08T20:24:09.581Z,10.20
2023-01-08T20:26:41.606Z,10.20
2023-01-08T20:29:11.979Z,10.20
2023-01-08T20:31:44.128Z,10.20
2023-01-08T20:34:17.961Z,10.30
2023-01-08T20:36:48.652Z,10.20
2023-01-08T20:39:22.100Z,10.20
2023-01-08T20:41:55.802Z,10.20
2023-01-08T20:44:34.821Z,10.20
2023-01-08T20:47:05.606Z,10.20
2023-01-08T20:49:35.976Z,10.20
2023-01-08T20:52:06.520Z,10.20
2023-01-08T20:54:39.507Z,10.20
2023-01-08T20:57:09.936Z,10.20
2023-01-08T20:59:40.396Z,10.20
2023-01-08T21:02:10.784Z,10.20
2023-01-08T21:04:41.770Z,10.20
2023-01-08T21:07:12.332Z,10.20
2023-01-08T21:09:45.340Z,10.10
2023-01-08T21:12:15.898Z,10.10
2023-01-08T21:14:46.582Z,10.10
2023-01-08T21:17:17.363Z,10.10
2023-01-08T21:19:47.862Z,10.10
2023-01-08T21:22:19.017Z,10.10
2023-01-08T21:24:52.033Z,10.10
2023-01-08T21:27:22.989Z,10.10
2023-01-08T21:29:53.489Z,10.10
2023-01-08T21:32:24.353Z,10.10
2023-01-08T21:34:55.135Z,10.10
2023-01-08T21:37:25.617Z,10.10
2023-01-08T21:39:58.660Z,9.90
2023-01-08T21:42:41.429Z,9.80
2023-01-08T21:45:29.544Z,9.60
2023-01-08T21:48:01.235Z,9.60
2023-01-08T21:50:31.585Z,9.60
2023-01-08T21:53:14.458Z,9.50
2023-01-08T21:55:47.492Z,9.50
2023-01-08T21:58:18.107Z,9.60
2023-01-08T22:00:48.657Z,9.60
2023-01-08T22:03:19.105Z,9.60
2023-01-08T22:05:59.049Z,9.60
2023-01-08T22:08:31.268Z,9.50
2023-01-08T22:11:08.160Z,9.60
2023-01-08T22:13:39.724Z,9.50
2023-01-08T22:16:12.248Z,9.50
2023-01-08T22:18:43.178Z,9.50
2023-01-08T22:21:17.103Z,9.40
2023-01-08T22:23:47.482Z,9.50
2023-01-08T22:26:21.049Z,9.30
2023-01-08T22:28:51.495Z,9.30
2023-01-08T22:31:21.910Z,9.30
2023-01-08T22:33:56.995Z,9.20
2023-01-08T22:36:28.472Z,9.20
2023-01-08T22:38:58.962Z,9.20
2023-01-08T22:41:31.856Z,9.20
2023-01-08T22:44:02.400Z,9.20
2023-01-08T22:46:33.725Z,9.20
2023-01-08T22:49:04.067Z,9.20
2023-01-08T22:51:34.778Z,9.20
2023-01-08T22:54:05.553Z,9.20
2023-01-08T22:56:38.927Z,9.20
2023-01-08T22:59:09.232Z,9.20
2023-01-08T23:01:39.883Z,9.20
2023-01-08T23:04:11.015Z,9.10
2023-01-08T23:06:41.426Z,9.00
2023-01-08T23:09:11.987Z,9.10
2023-01-08T23:11:44.993Z,9.10
2023-01-08T23:14:18.410Z,9.10
2023-01-08T23:16:48.840Z,9.00
2023-01-08T23:19:19.786Z,9.00
2023-01-08T23:21:50.416Z,9.00
2023-01-08T23:24:21.392Z,9.00
2023-01-08T23:26:54.801Z,8.90
2023-01-08T23:29:29.738Z,9.00
2023-01-08T23:32:00.390Z,8.90
2023-01-08T23:34:31.395Z,8.90
2023-01-08T23:37:01.805Z,8.80
2023-01-08T23:39:32.213Z,8.90
2023-01-08T23:42:05.285Z,8.80
2023-01-08T23:44:35.925Z,8.80
2023-01-08T23:47:06.286Z,8.80
2023-01-08T23:49:37.048Z,8.80
2023-01-08T23:52:09.836Z,8.80
2023-01-08T23:54:43.606Z,8.80
2023-01-08T23:57:16.565Z,8.70
2023-01-08T23:59:46.915Z,8.80
